sensor_id;sensor_type;location;lat;lon;timestamp;P1;durP1;ratioP1;P2;durP2;ratioP2
11608;SDS011;5860;52.018;8.536;2023-04-24T00:00:26;0.60;;;0.50;;
11608;SDS011;5860;52.018;8.536;2023-04-24T00:02:53;2.50;;;0.40;;
11608;SDS011;5860;52.018;8.536;2023-04-24T00:05:23;0.80;;;0.47;;
11608;SDS011;5860;52.018;8.536;2023-04-24T00:07:51;1.00;;;0.50;;
11608;SDS011;5860;52.018;8.536;2023-04-24T00:10:21;0.50;;;0.47;;
11608;SDS011;5860;52.018;8.536;2023-04-24T00:12:48;0.60;;;0.40;;
11608;SDS011;5860;52.018;8.536;2023-04-24T00:15:15;0.60;;;0.40;;
11608;SDS011;5860;52.018;8.536;2023-04-24T00:17:42;0.80;;;0.50;;
11608;SDS011;5860;52.018;8.536;2023-04-24T00:20:09;1.43;;;0.47;;
11608;SDS011;5860;52.018;8.536;2023-04-24T00:22:36;1.33;;;0.40;;
11608;SDS011;5860;52.018;8.536;2023-04-24T00:25:04;0.87;;;0.63;;
11608;SDS011;5860;52.018;8.536;2023-04-24T00:27:32;0.70;;;0.47;;
11608;SDS011;5860;52.018;8.536;2023-04-24T00:29:59;0.60;;;0.60;;
11608;SDS011;5860;52.018;8.536;2023-04-24T00:32:26;0.90;;;0.40;;
11608;SDS011;5860;52.018;8.536;2023-04-24T00:34:53;1.50;;;0.50;;
11608;SDS011;5860;52.018;8.536;2023-04-24T00:37:20;1.07;;;0.50;;
11608;SDS011;5860;52.018;8.536;2023-04-24T00:39:47;0.77;;;0.60;;
11608;SDS011;5860;52.018;8.536;2023-04-24T00:42:14;2.10;;;0.80;;
11608;SDS011;5860;52.018;8.536;2023-04-24T00:44:41;0.80;;;0.80;;
11608;SDS011;5860;52.018;8.536;2023-04-24T00:47:09;1.20;;;0.80;;
11608;SDS011;5860;52.018;8.536;2023-04-24T00:49:37;0.80;;;0.70;;
11608;SDS011;5860;52.018;8.536;2023-04-24T00:52:04;0.80;;;0.70;;
11608;SDS011;5860;52.018;8.536;2023-04-24T00:54:36;1.30;;;0.70;;
11608;SDS011;5860;52.018;8.536;2023-04-24T00:57:03;1.40;;;0.70;;
11608;SDS011;5860;52.018;8.536;2023-04-24T00:59:31;1.23;;;0.60;;
11608;SDS011;5860;52.018;8.536;2023-04-24T01:01:58;1.03;;;0.83;;
11608;SDS011;5860;52.018;8.536;2023-04-24T01:04:25;2.47;;;0.80;;
11608;SDS011;5860;52.018;8.536;2023-04-24T01:06:54;1.03;;;0.83;;
11608;SDS011;5860;52.018;8.536;2023-04-24T01:09:23;0.63;;;0.60;;
11608;SDS011;5860;52.018;8.536;2023-04-24T01:11:50;0.80;;;0.70;;
11608;SDS011;5860;52.018;8.536;2023-04-24T01:14:17;0.90;;;0.80;;
11608;SDS011;5860;52.018;8.536;2023-04-24T01:16:44;1.90;;;1.00;;
11608;SDS011;5860;52.018;8.536;2023-04-24T01:19:11;0.93;;;0.70;;
11608;SDS011;5860;52.018;8.536;2023-04-24T01:21:39;1.00;;;0.70;;
11608;SDS011;5860;52.018;8.536;2023-04-24T01:24:08;1.43;;;0.90;;
11608;SDS011;5860;52.018;8.536;2023-04-24T01:26:35;2.00;;;0.80;;
11608;SDS011;5860;52.018;8.536;2023-04-24T01:29:02;1.33;;;0.80;;
11608;SDS011;5860;52.018;8.536;2023-04-24T01:31:29;1.20;;;0.90;;
11608;SDS011;5860;52.018;8.536;2023-04-24T01:33:56;1.27;;;0.83;;
11608;SDS011;5860;52.018;8.536;2023-04-24T01:36:24;0.90;;;0.70;;
11608;SDS011;5860;52.018;8.536;2023-04-24T01:38:53;1.00;;;0.90;;
11608;SDS011;5860;52.018;8.536;2023-04-24T01:41:20;1.43;;;0.80;;
11608;SDS011;5860;52.018;8.536;2023-04-24T01:43:48;0.80;;;0.67;;
11608;SDS011;5860;52.018;8.536;2023-04-24T01:46:16;0.70;;;0.60;;
11608;SDS011;5860;52.018;8.536;2023-04-24T01:48:44;0.60;;;0.60;;
11608;SDS011;5860;52.018;8.536;2023-04-24T01:51:11;1.07;;;0.67;;
11608;SDS011;5860;52.018;8.536;2023-04-24T01:53:38;1.57;;;0.60;;
11608;SDS011;5860;52.018;8.536;2023-04-24T01:56:05;1.63;;;0.47;;
11608;SDS011;5860;52.018;8.536;2023-04-24T01:58:33;0.70;;;0.60;;
11608;SDS011;5860;52.018;8.536;2023-04-24T02:01:00;1.17;;;0.60;;
11608;SDS011;5860;52.018;8.536;2023-04-24T02:03:27;0.67;;;0.67;;
11608;SDS011;5860;52.018;8.536;2023-04-24T02:05:54;1.93;;;0.90;;
11608;SDS011;5860;52.018;8.536;2023-04-24T02:08:21;1.30;;;0.77;;
11608;SDS011;5860;52.018;8.536;2023-04-24T02:10:48;1.07;;;0.90;;
11608;SDS011;5860;52.018;8.536;2023-04-24T02:13:15;1.43;;;0.97;;
11608;SDS011;5860;52.018;8.536;2023-04-24T02:15:42;1.40;;;1.10;;
11608;SDS011;5860;52.018;8.536;2023-04-24T02:18:09;2.43;;;1.23;;
11608;SDS011;5860;52.018;8.536;2023-04-24T02:20:37;1.10;;;0.80;;
11608;SDS011;5860;52.018;8.536;2023-04-24T02:23:04;1.07;;;0.80;;
11608;SDS011;5860;52.018;8.536;2023-04-24T02:25:32;1.33;;;0.93;;
11608;SDS011;5860;52.018;8.536;2023-04-24T02:28:00;1.40;;;0.90;;
11608;SDS011;5860;52.018;8.536;2023-04-24T02:30:27;1.10;;;0.90;;
11608;SDS011;5860;52.018;8.536;2023-04-24T02:32:54;2.13;;;0.93;;
11608;SDS011;5860;52.018;8.536;2023-04-24T02:35:22;1.33;;;1.10;;
11608;SDS011;5860;52.018;8.536;2023-04-24T02:37:49;1.97;;;1.10;;
11608;SDS011;5860;52.018;8.536;2023-04-24T02:40:16;1.10;;;0.90;;
11608;SDS011;5860;52.018;8.536;2023-04-24T02:42:43;1.00;;;0.80;;
11608;SDS011;5860;52.018;8.536;2023-04-24T02:45:10;1.53;;;0.90;;
11608;SDS011;5860;52.018;8.536;2023-04-24T02:47:37;0.70;;;0.70;;
11608;SDS011;5860;52.018;8.536;2023-04-24T02:50:05;1.43;;;0.77;;
11608;SDS011;5860;52.018;8.536;2023-04-24T02:52:32;1.23;;;0.80;;
11608;SDS011;5860;52.018;8.536;2023-04-24T02:54:59;1.60;;;0.90;;
11608;SDS011;5860;52.018;8.536;2023-04-24T02:57:26;1.97;;;0.80;;
11608;SDS011;5860;52.018;8.536;2023-04-24T02:59:56;5.17;;;1.00;;
11608;SDS011;5860;52.018;8.536;2023-04-24T03:02:22;2.73;;;0.70;;
11608;SDS011;5860;52.018;8.536;2023-04-24T03:04:50;1.23;;;1.00;;
11608;SDS011;5860;52.018;8.536;2023-04-24T03:07:17;1.53;;;0.90;;
11608;SDS011;5860;52.018;8.536;2023-04-24T03:09:47;0.80;;;0.80;;
11608;SDS011;5860;52.018;8.536;2023-04-24T03:12:14;1.37;;;0.73;;
11608;SDS011;5860;52.018;8.536;2023-04-24T03:14:43;1.67;;;0.80;;
11608;SDS011;5860;52.018;8.536;2023-04-24T03:17:10;0.80;;;0.70;;
11608;SDS011;5860;52.018;8.536;2023-04-24T03:19:37;1.07;;;0.90;;
11608;SDS011;5860;52.018;8.536;2023-04-24T03:22:05;0.80;;;0.60;;
11608;SDS011;5860;52.018;8.536;2023-04-24T03:24:32;1.73;;;0.77;;
11608;SDS011;5860;52.018;8.536;2023-04-24T03:26:59;0.80;;;0.67;;
11608;SDS011;5860;52.018;8.536;2023-04-24T03:29:26;1.27;;;0.80;;
11608;SDS011;5860;52.018;8.536;2023-04-24T03:31:55;1.57;;;0.90;;
11608;SDS011;5860;52.018;8.536;2023-04-24T03:34:22;0.97;;;0.87;;
11608;SDS011;5860;52.018;8.536;2023-04-24T03:36:49;1.10;;;0.90;;
11608;SDS011;5860;52.018;8.536;2023-04-24T03:39:16;1.67;;;0.80;;
11608;SDS011;5860;52.018;8.536;2023-04-24T03:41:43;1.07;;;0.60;;
11608;SDS011;5860;52.018;8.536;2023-04-24T03:44:10;1.17;;;0.70;;
11608;SDS011;5860;52.018;8.536;2023-04-24T03:46:37;1.47;;;0.80;;
11608;SDS011;5860;52.018;8.536;2023-04-24T03:49:04;1.87;;;0.90;;
11608;SDS011;5860;52.018;8.536;2023-04-24T03:51:31;1.03;;;0.90;;
11608;SDS011;5860;52.018;8.536;2023-04-24T03:53:58;3.70;;;1.37;;
11608;SDS011;5860;52.018;8.536;2023-04-24T03:56:25;1.40;;;1.10;;
11608;SDS011;5860;52.018;8.536;2023-04-24T03:58:52;2.00;;;1.30;;
11608;SDS011;5860;52.018;8.536;2023-04-24T04:01:19;1.73;;;1.33;;
11608;SDS011;5860;52.018;8.536;2023-04-24T04:03:47;2.33;;;1.30;;
11608;SDS011;5860;52.018;8.536;2023-04-24T04:06:14;1.97;;;1.47;;
11608;SDS011;5860;52.018;8.536;2023-04-24T04:08:41;1.80;;;1.37;;
11608;SDS011;5860;52.018;8.536;2023-04-24T04:11:08;1.53;;;1.43;;
11608;SDS011;5860;52.018;8.536;2023-04-24T04:13:35;3.70;;;1.60;;
11608;SDS011;5860;52.018;8.536;2023-04-24T04:16:02;4.13;;;1.40;;
11608;SDS011;5860;52.018;8.536;2023-04-24T04:18:29;3.93;;;1.63;;
11608;SDS011;5860;52.018;8.536;2023-04-24T04:20:56;2.20;;;1.80;;
11608;SDS011;5860;52.018;8.536;2023-04-24T04:23:23;2.23;;;1.70;;
11608;SDS011;5860;52.018;8.536;2023-04-24T04:25:50;1.60;;;1.40;;
11608;SDS011;5860;52.018;8.536;2023-04-24T04:28:18;2.10;;;1.90;;
11608;SDS011;5860;52.018;8.536;2023-04-24T04:30:46;2.07;;;1.70;;
11608;SDS011;5860;52.018;8.536;2023-04-24T04:33:13;4.67;;;1.90;;
11608;SDS011;5860;52.018;8.536;2023-04-24T04:35:41;1.87;;;1.67;;
11608;SDS011;5860;52.018;8.536;2023-04-24T04:38:08;2.13;;;1.93;;
11608;SDS011;5860;52.018;8.536;2023-04-24T04:40:37;1.90;;;1.70;;
11608;SDS011;5860;52.018;8.536;2023-04-24T04:43:04;3.40;;;2.23;;
11608;SDS011;5860;52.018;8.536;2023-04-24T04:45:31;2.93;;;2.07;;
11608;SDS011;5860;52.018;8.536;2023-04-24T04:47:59;4.47;;;2.57;;
11608;SDS011;5860;52.018;8.536;2023-04-24T04:50:27;2.90;;;2.50;;
11608;SDS011;5860;52.018;8.536;2023-04-24T04:52:54;3.47;;;2.57;;
11608;SDS011;5860;52.018;8.536;2023-04-24T04:55:23;4.40;;;3.40;;
11608;SDS011;5860;52.018;8.536;2023-04-24T04:57:50;5.80;;;4.07;;
11608;SDS011;5860;52.018;8.536;2023-04-24T05:00:18;5.80;;;4.67;;
11608;SDS011;5860;52.018;8.536;2023-04-24T05:02:45;6.63;;;4.87;;
11608;SDS011;5860;52.018;8.536;2023-04-24T05:05:12;6.03;;;5.40;;
11608;SDS011;5860;52.018;8.536;2023-04-24T05:07:39;7.43;;;4.87;;
11608;SDS011;5860;52.018;8.536;2023-04-24T05:10:06;7.57;;;5.43;;
11608;SDS011;5860;52.018;8.536;2023-04-24T05:12:34;6.97;;;6.10;;
11608;SDS011;5860;52.018;8.536;2023-04-24T05:15:01;7.57;;;5.93;;
11608;SDS011;5860;52.018;8.536;2023-04-24T05:17:28;7.90;;;6.43;;
11608;SDS011;5860;52.018;8.536;2023-04-24T05:19:55;7.23;;;6.37;;
11608;SDS011;5860;52.018;8.536;2023-04-24T05:22:23;8.50;;;6.80;;
11608;SDS011;5860;52.018;8.536;2023-04-24T05:24:50;9.33;;;6.60;;
11608;SDS011;5860;52.018;8.536;2023-04-24T05:27:17;9.90;;;6.50;;
11608;SDS011;5860;52.018;8.536;2023-04-24T05:29:44;7.43;;;6.47;;
11608;SDS011;5860;52.018;8.536;2023-04-24T05:32:11;9.97;;;6.70;;
11608;SDS011;5860;52.018;8.536;2023-04-24T05:34:38;10.80;;;7.97;;
11608;SDS011;5860;52.018;8.536;2023-04-24T05:37:05;8.43;;;7.07;;
11608;SDS011;5860;52.018;8.536;2023-04-24T05:39:34;8.73;;;6.97;;
11608;SDS011;5860;52.018;8.536;2023-04-24T05:42:02;8.67;;;7.47;;
11608;SDS011;5860;52.018;8.536;2023-04-24T05:44:31;10.27;;;7.43;;
11608;SDS011;5860;52.018;8.536;2023-04-24T05:46:58;9.30;;;7.07;;
11608;SDS011;5860;52.018;8.536;2023-04-24T05:49:25;10.90;;;7.83;;
11608;SDS011;5860;52.018;8.536;2023-04-24T05:51:53;12.43;;;8.33;;
11608;SDS011;5860;52.018;8.536;2023-04-24T05:54:20;13.83;;;8.30;;
11608;SDS011;5860;52.018;8.536;2023-04-24T05:56:47;10.27;;;8.13;;
11608;SDS011;5860;52.018;8.536;2023-04-24T05:59:16;9.93;;;8.73;;
11608;SDS011;5860;52.018;8.536;2023-04-24T06:01:43;13.50;;;9.00;;
11608;SDS011;5860;52.018;8.536;2023-04-24T06:04:11;12.13;;;8.27;;
11608;SDS011;5860;52.018;8.536;2023-04-24T06:06:42;10.00;;;7.77;;
11608;SDS011;5860;52.018;8.536;2023-04-24T06:09:09;10.17;;;8.80;;
11608;SDS011;5860;52.018;8.536;2023-04-24T06:11:36;14.83;;;10.33;;
11608;SDS011;5860;52.018;8.536;2023-04-24T06:14:03;11.17;;;9.97;;
11608;SDS011;5860;52.018;8.536;2023-04-24T06:16:31;12.43;;;9.97;;
11608;SDS011;5860;52.018;8.536;2023-04-24T06:18:58;11.57;;;10.33;;
11608;SDS011;5860;52.018;8.536;2023-04-24T06:21:25;11.43;;;9.50;;
11608;SDS011;5860;52.018;8.536;2023-04-24T06:23:56;13.17;;;10.27;;
11608;SDS011;5860;52.018;8.536;2023-04-24T06:26:24;11.93;;;10.07;;
11608;SDS011;5860;52.018;8.536;2023-04-24T06:28:53;12.23;;;10.70;;
11608;SDS011;5860;52.018;8.536;2023-04-24T06:31:25;12.60;;;10.33;;
11608;SDS011;5860;52.018;8.536;2023-04-24T06:33:52;12.47;;;10.43;;
11608;SDS011;5860;52.018;8.536;2023-04-24T06:36:19;15.73;;;10.53;;
11608;SDS011;5860;52.018;8.536;2023-04-24T06:38:46;11.33;;;10.13;;
11608;SDS011;5860;52.018;8.536;2023-04-24T06:41:13;12.60;;;10.70;;
11608;SDS011;5860;52.018;8.536;2023-04-24T06:43:40;13.07;;;10.03;;
11608;SDS011;5860;52.018;8.536;2023-04-24T06:46:07;12.13;;;10.03;;
11608;SDS011;5860;52.018;8.536;2023-04-24T06:48:35;12.57;;;10.13;;
11608;SDS011;5860;52.018;8.536;2023-04-24T06:51:02;13.40;;;9.83;;
11608;SDS011;5860;52.018;8.536;2023-04-24T06:53:29;13.87;;;10.37;;
11608;SDS011;5860;52.018;8.536;2023-04-24T06:55:56;11.17;;;9.93;;
11608;SDS011;5860;52.018;8.536;2023-04-24T06:58:23;13.97;;;10.43;;
11608;SDS011;5860;52.018;8.536;2023-04-24T07:00:52;12.23;;;10.47;;
11608;SDS011;5860;52.018;8.536;2023-04-24T07:03:19;12.50;;;10.47;;
11608;SDS011;5860;52.018;8.536;2023-04-24T07:05:46;12.00;;;9.23;;
11608;SDS011;5860;52.018;8.536;2023-04-24T07:08:14;13.10;;;9.63;;
11608;SDS011;5860;52.018;8.536;2023-04-24T07:10:43;11.97;;;9.10;;
11608;SDS011;5860;52.018;8.536;2023-04-24T07:13:11;12.27;;;9.30;;
11608;SDS011;5860;52.018;8.536;2023-04-24T07:15:38;12.43;;;9.17;;
11608;SDS011;5860;52.018;8.536;2023-04-24T07:18:06;12.80;;;9.00;;
11608;SDS011;5860;52.018;8.536;2023-04-24T07:20:33;11.80;;;8.23;;
11608;SDS011;5860;52.018;8.536;2023-04-24T07:23:00;12.70;;;8.93;;
11608;SDS011;5860;52.018;8.536;2023-04-24T07:25:28;10.40;;;7.77;;
11608;SDS011;5860;52.018;8.536;2023-04-24T07:27:55;9.67;;;7.43;;
11608;SDS011;5860;52.018;8.536;2023-04-24T07:30:23;9.13;;;7.40;;
11608;SDS011;5860;52.018;8.536;2023-04-24T07:32:50;10.00;;;8.20;;
11608;SDS011;5860;52.018;8.536;2023-04-24T07:35:16;8.53;;;7.30;;
11608;SDS011;5860;52.018;8.536;2023-04-24T07:37:44;9.10;;;7.10;;
11608;SDS011;5860;52.018;8.536;2023-04-24T07:40:12;10.00;;;7.27;;
11608;SDS011;5860;52.018;8.536;2023-04-24T07:42:39;8.20;;;7.10;;
11608;SDS011;5860;52.018;8.536;2023-04-24T07:45:07;8.33;;;7.53;;
11608;SDS011;5860;52.018;8.536;2023-04-24T07:47:34;8.47;;;6.47;;
11608;SDS011;5860;52.018;8.536;2023-04-24T07:50:03;10.53;;;6.70;;
11608;SDS011;5860;52.018;8.536;2023-04-24T07:52:31;6.67;;;5.97;;
11608;SDS011;5860;52.018;8.536;2023-04-24T07:54:58;6.30;;;5.67;;
11608;SDS011;5860;52.018;8.536;2023-04-24T07:57:26;8.83;;;5.80;;
11608;SDS011;5860;52.018;8.536;2023-04-24T07:59:54;6.97;;;5.93;;
11608;SDS011;5860;52.018;8.536;2023-04-24T08:02:21;6.00;;;5.13;;
11608;SDS011;5860;52.018;8.536;2023-04-24T08:04:52;6.33;;;4.60;;
11608;SDS011;5860;52.018;8.536;2023-04-24T08:07:25;5.13;;;4.60;;
11608;SDS011;5860;52.018;8.536;2023-04-24T08:09:52;4.70;;;4.20;;
11608;SDS011;5860;52.018;8.536;2023-04-24T08:12:19;4.40;;;3.93;;
11608;SDS011;5860;52.018;8.536;2023-04-24T08:14:47;4.73;;;4.00;;
11608;SDS011;5860;52.018;8.536;2023-04-24T08:17:13;6.43;;;4.57;;
11608;SDS011;5860;52.018;8.536;2023-04-24T08:19:41;5.67;;;4.83;;
11608;SDS011;5860;52.018;8.536;2023-04-24T08:22:14;5.03;;;4.53;;
11608;SDS011;5860;52.018;8.536;2023-04-24T08:24:41;4.60;;;3.90;;
11608;SDS011;5860;52.018;8.536;2023-04-24T08:27:08;4.20;;;3.70;;
11608;SDS011;5860;52.018;8.536;2023-04-24T08:29:36;5.33;;;3.73;;
11608;SDS011;5860;52.018;8.536;2023-04-24T08:32:04;4.40;;;3.47;;
11608;SDS011;5860;52.018;8.536;2023-04-24T08:34:31;4.13;;;3.47;;
11608;SDS011;5860;52.018;8.536;2023-04-24T08:36:58;3.63;;;3.13;;
11608;SDS011;5860;52.018;8.536;2023-04-24T08:39:25;4.10;;;2.50;;
11608;SDS011;5860;52.018;8.536;2023-04-24T08:41:52;2.80;;;2.27;;
11608;SDS011;5860;52.018;8.536;2023-04-24T08:44:19;7.67;;;2.50;;
11608;SDS011;5860;52.018;8.536;2023-04-24T08:46:49;3.87;;;2.40;;
11608;SDS011;5860;52.018;8.536;2023-04-24T08:49:17;2.43;;;2.23;;
11608;SDS011;5860;52.018;8.536;2023-04-24T08:51:46;2.30;;;2.10;;
11608;SDS011;5860;52.018;8.536;2023-04-24T08:54:14;2.10;;;1.90;;
11608;SDS011;5860;52.018;8.536;2023-04-24T08:56:42;2.50;;;2.30;;
11608;SDS011;5860;52.018;8.536;2023-04-24T08:59:11;2.20;;;1.90;;
11608;SDS011;5860;52.018;8.536;2023-04-24T09:01:38;2.23;;;2.00;;
11608;SDS011;5860;52.018;8.536;2023-04-24T09:04:08;3.17;;;2.17;;
11608;SDS011;5860;52.018;8.536;2023-04-24T09:06:39;2.27;;;2.07;;
11608;SDS011;5860;52.018;8.536;2023-04-24T09:09:07;2.53;;;2.33;;
11608;SDS011;5860;52.018;8.536;2023-04-24T09:11:36;2.10;;;1.87;;
11608;SDS011;5860;52.018;8.536;2023-04-24T09:14:04;2.97;;;2.30;;
11608;SDS011;5860;52.018;8.536;2023-04-24T09:16:31;3.43;;;1.73;;
11608;SDS011;5860;52.018;8.536;2023-04-24T09:19:02;4.63;;;1.70;;
11608;SDS011;5860;52.018;8.536;2023-04-24T09:21:33;4.67;;;2.43;;
11608;SDS011;5860;52.018;8.536;2023-04-24T09:24:01;2.30;;;1.90;;
11608;SDS011;5860;52.018;8.536;2023-04-24T09:26:31;3.60;;;2.10;;
11608;SDS011;5860;52.018;8.536;2023-04-24T09:28:59;3.00;;;1.87;;
11608;SDS011;5860;52.018;8.536;2023-04-24T09:31:27;1.90;;;1.60;;
11608;SDS011;5860;52.018;8.536;2023-04-24T09:33:57;1.93;;;1.70;;
11608;SDS011;5860;52.018;8.536;2023-04-24T09:39:02;1.63;;;1.43;;
11608;SDS011;5860;52.018;8.536;2023-04-24T09:41:46;4.43;;;1.70;;
11608;SDS011;5860;52.018;8.536;2023-04-24T09:44:21;1.70;;;1.40;;
11608;SDS011;5860;52.018;8.536;2023-04-24T09:46:58;1.70;;;1.60;;
11608;SDS011;5860;52.018;8.536;2023-04-24T09:49:27;2.90;;;1.33;;
11608;SDS011;5860;52.018;8.536;2023-04-24T09:52:09;2.40;;;1.63;;
11608;SDS011;5860;52.018;8.536;2023-04-24T09:54:38;1.70;;;1.60;;
11608;SDS011;5860;52.018;8.536;2023-04-24T09:57:08;1.57;;;1.33;;
11608;SDS011;5860;52.018;8.536;2023-04-24T09:59:35;2.77;;;1.60;;
11608;SDS011;5860;52.018;8.536;2023-04-24T10:02:17;1.30;;;1.20;;
11608;SDS011;5860;52.018;8.536;2023-04-24T10:04:55;1.30;;;1.17;;
11608;SDS011;5860;52.018;8.536;2023-04-24T10:07:26;2.63;;;1.50;;
11608;SDS011;5860;52.018;8.536;2023-04-24T10:09:54;1.97;;;1.70;;
11608;SDS011;5860;52.018;8.536;2023-04-24T10:12:21;1.90;;;1.53;;
11608;SDS011;5860;52.018;8.536;2023-04-24T10:14:49;3.30;;;1.77;;
11608;SDS011;5860;52.018;8.536;2023-04-24T10:17:17;1.20;;;1.10;;
11608;SDS011;5860;52.018;8.536;2023-04-24T10:19:46;3.10;;;1.50;;
11608;SDS011;5860;52.018;8.536;2023-04-24T10:22:14;2.03;;;1.23;;
11608;SDS011;5860;52.018;8.536;2023-04-24T10:24:43;1.30;;;0.90;;
11608;SDS011;5860;52.018;8.536;2023-04-24T10:27:13;1.47;;;0.93;;
11608;SDS011;5860;52.018;8.536;2023-04-24T10:29:41;1.20;;;0.80;;
11608;SDS011;5860;52.018;8.536;2023-04-24T10:32:11;1.37;;;0.90;;
11608;SDS011;5860;52.018;8.536;2023-04-24T10:34:38;1.10;;;1.00;;
11608;SDS011;5860;52.018;8.536;2023-04-24T10:37:05;1.10;;;0.83;;
11608;SDS011;5860;52.018;8.536;2023-04-24T10:39:32;2.57;;;1.10;;
11608;SDS011;5860;52.018;8.536;2023-04-24T10:41:59;2.43;;;1.90;;
11608;SDS011;5860;52.018;8.536;2023-04-24T10:44:27;2.33;;;1.83;;
11608;SDS011;5860;52.018;8.536;2023-04-24T10:47:03;3.57;;;2.50;;
11608;SDS011;5860;52.018;8.536;2023-04-24T10:49:31;3.37;;;2.30;;
11608;SDS011;5860;52.018;8.536;2023-04-24T10:52:02;3.97;;;2.70;;
11608;SDS011;5860;52.018;8.536;2023-04-24T10:54:42;3.33;;;3.00;;
11608;SDS011;5860;52.018;8.536;2023-04-24T11:00:09;3.77;;;3.47;;
11608;SDS011;5860;52.018;8.536;2023-04-24T11:02:42;3.87;;;3.33;;
11608;SDS011;5860;52.018;8.536;2023-04-24T11:05:16;4.13;;;3.73;;
11608;SDS011;5860;52.018;8.536;2023-04-24T11:10:54;4.03;;;3.73;;
11608;SDS011;5860;52.018;8.536;2023-04-24T11:13:26;3.27;;;2.97;;
11608;SDS011;5860;52.018;8.536;2023-04-24T11:16:15;4.03;;;3.43;;
11608;SDS011;5860;52.018;8.536;2023-04-24T11:19:05;3.50;;;3.20;;
11608;SDS011;5860;52.018;8.536;2023-04-24T11:21:46;3.70;;;3.40;;
11608;SDS011;5860;52.018;8.536;2023-04-24T11:24:31;4.00;;;3.60;;
11608;SDS011;5860;52.018;8.536;2023-04-24T11:27:09;3.93;;;3.53;;
11608;SDS011;5860;52.018;8.536;2023-04-24T11:32:25;3.93;;;3.53;;
11608;SDS011;5860;52.018;8.536;2023-04-24T11:35:00;3.13;;;2.60;;
11608;SDS011;5860;52.018;8.536;2023-04-24T11:37:36;2.23;;;2.03;;
11608;SDS011;5860;52.018;8.536;2023-04-24T11:40:06;2.33;;;2.13;;
11608;SDS011;5860;52.018;8.536;2023-04-24T11:42:35;2.00;;;1.63;;
11608;SDS011;5860;52.018;8.536;2023-04-24T11:45:10;1.63;;;1.43;;
11608;SDS011;5860;52.018;8.536;2023-04-24T11:47:42;1.67;;;1.30;;
11608;SDS011;5860;52.018;8.536;2023-04-24T11:50:11;1.97;;;1.20;;
11608;SDS011;5860;52.018;8.536;2023-04-24T11:52:40;1.27;;;1.17;;
11608;SDS011;5860;52.018;8.536;2023-04-24T12:00:17;2.40;;;1.63;;
11608;SDS011;5860;52.018;8.536;2023-04-24T12:02:46;1.83;;;1.37;;
11608;SDS011;5860;52.018;8.536;2023-04-24T12:05:19;2.30;;;1.80;;
11608;SDS011;5860;52.018;8.536;2023-04-24T12:07:52;2.23;;;2.03;;
11608;SDS011;5860;52.018;8.536;2023-04-24T12:10:20;2.67;;;2.17;;
11608;SDS011;5860;52.018;8.536;2023-04-24T12:12:49;4.00;;;2.40;;
11608;SDS011;5860;52.018;8.536;2023-04-24T12:15:18;2.93;;;2.63;;
11608;SDS011;5860;52.018;8.536;2023-04-24T12:17:47;2.50;;;2.30;;
11608;SDS011;5860;52.018;8.536;2023-04-24T12:20:17;2.63;;;1.87;;
11608;SDS011;5860;52.018;8.536;2023-04-24T12:22:50;2.67;;;2.10;;
11608;SDS011;5860;52.018;8.536;2023-04-24T12:25:21;1.90;;;1.80;;
11608;SDS011;5860;52.018;8.536;2023-04-24T12:27:54;3.63;;;2.47;;
11608;SDS011;5860;52.018;8.536;2023-04-24T12:30:44;3.63;;;2.67;;
11608;SDS011;5860;52.018;8.536;2023-04-24T12:33:18;4.77;;;2.80;;
11608;SDS011;5860;52.018;8.536;2023-04-24T12:35:47;3.97;;;3.00;;
11608;SDS011;5860;52.018;8.536;2023-04-24T12:38:21;4.13;;;2.57;;
11608;SDS011;5860;52.018;8.536;2023-04-24T12:41:04;3.50;;;2.67;;
11608;SDS011;5860;52.018;8.536;2023-04-24T12:43:34;4.17;;;3.27;;
11608;SDS011;5860;52.018;8.536;2023-04-24T12:46:01;3.93;;;3.43;;
11608;SDS011;5860;52.018;8.536;2023-04-24T12:48:29;4.87;;;3.67;;
11608;SDS011;5860;52.018;8.536;2023-04-24T12:50:57;7.50;;;3.90;;
11608;SDS011;5860;52.018;8.536;2023-04-24T12:53:27;6.63;;;4.30;;
11608;SDS011;5860;52.018;8.536;2023-04-24T12:55:56;4.67;;;3.70;;
11608;SDS011;5860;52.018;8.536;2023-04-24T12:58:23;4.60;;;3.57;;
11608;SDS011;5860;52.018;8.536;2023-04-24T13:00:50;4.73;;;3.80;;
11608;SDS011;5860;52.018;8.536;2023-04-24T13:03:18;7.57;;;4.43;;
11608;SDS011;5860;52.018;8.536;2023-04-24T13:05:45;5.27;;;4.00;;
11608;SDS011;5860;52.018;8.536;2023-04-24T13:08:12;7.27;;;4.50;;
11608;SDS011;5860;52.018;8.536;2023-04-24T13:10:39;7.77;;;4.50;;
11608;SDS011;5860;52.018;8.536;2023-04-24T13:13:07;5.37;;;4.30;;
11608;SDS011;5860;52.018;8.536;2023-04-24T13:15:35;6.03;;;4.23;;
11608;SDS011;5860;52.018;8.536;2023-04-24T13:18:02;5.57;;;4.10;;
11608;SDS011;5860;52.018;8.536;2023-04-24T13:20:29;5.67;;;4.33;;
11608;SDS011;5860;52.018;8.536;2023-04-24T13:22:56;5.23;;;4.00;;
11608;SDS011;5860;52.018;8.536;2023-04-24T13:25:23;7.27;;;4.50;;
11608;SDS011;5860;52.018;8.536;2023-04-24T13:27:51;6.67;;;4.40;;
11608;SDS011;5860;52.018;8.536;2023-04-24T13:30:18;5.77;;;3.73;;
11608;SDS011;5860;52.018;8.536;2023-04-24T13:32:45;4.00;;;3.47;;
11608;SDS011;5860;52.018;8.536;2023-04-24T13:35:12;4.50;;;3.30;;
11608;SDS011;5860;52.018;8.536;2023-04-24T13:37:39;5.93;;;3.70;;
11608;SDS011;5860;52.018;8.536;2023-04-24T13:40:06;6.97;;;4.20;;
11608;SDS011;5860;52.018;8.536;2023-04-24T13:42:34;5.70;;;4.33;;
11608;SDS011;5860;52.018;8.536;2023-04-24T13:45:01;7.30;;;5.00;;
11608;SDS011;5860;52.018;8.536;2023-04-24T13:47:49;7.43;;;4.87;;
11608;SDS011;5860;52.018;8.536;2023-04-24T13:50:17;8.03;;;5.30;;
11608;SDS011;5860;52.018;8.536;2023-04-24T13:52:45;9.20;;;5.03;;
11608;SDS011;5860;52.018;8.536;2023-04-24T13:55:12;8.17;;;5.07;;
11608;SDS011;5860;52.018;8.536;2023-04-24T13:57:39;9.37;;;5.13;;
11608;SDS011;5860;52.018;8.536;2023-04-24T14:00:06;11.10;;;5.53;;
11608;SDS011;5860;52.018;8.536;2023-04-24T14:02:37;16.20;;;5.47;;
11608;SDS011;5860;52.018;8.536;2023-04-24T14:05:04;10.93;;;5.80;;
11608;SDS011;5860;52.018;8.536;2023-04-24T14:07:32;10.43;;;5.60;;
11608;SDS011;5860;52.018;8.536;2023-04-24T14:09:59;9.30;;;6.37;;
11608;SDS011;5860;52.018;8.536;2023-04-24T14:12:26;9.53;;;5.83;;
11608;SDS011;5860;52.018;8.536;2023-04-24T14:14:53;9.23;;;5.67;;
11608;SDS011;5860;52.018;8.536;2023-04-24T14:17:20;10.43;;;5.60;;
11608;SDS011;5860;52.018;8.536;2023-04-24T14:19:47;11.80;;;6.23;;
11608;SDS011;5860;52.018;8.536;2023-04-24T14:22:15;9.57;;;5.37;;
11608;SDS011;5860;52.018;8.536;2023-04-24T14:24:42;8.87;;;5.57;;
11608;SDS011;5860;52.018;8.536;2023-04-24T14:27:09;8.60;;;4.70;;
11608;SDS011;5860;52.018;8.536;2023-04-24T14:29:36;10.43;;;4.57;;
11608;SDS011;5860;52.018;8.536;2023-04-24T14:32:03;10.03;;;4.70;;
11608;SDS011;5860;52.018;8.536;2023-04-24T14:34:30;9.67;;;4.53;;
11608;SDS011;5860;52.018;8.536;2023-04-24T14:36:57;9.53;;;4.70;;
11608;SDS011;5860;52.018;8.536;2023-04-24T14:39:25;11.33;;;4.43;;
11608;SDS011;5860;52.018;8.536;2023-04-24T14:41:52;8.17;;;4.33;;
11608;SDS011;5860;52.018;8.536;2023-04-24T14:44:18;8.27;;;4.33;;
11608;SDS011;5860;52.018;8.536;2023-04-24T14:46:45;9.30;;;4.53;;
11608;SDS011;5860;52.018;8.536;2023-04-24T14:49:13;12.37;;;4.70;;
11608;SDS011;5860;52.018;8.536;2023-04-24T14:51:39;8.70;;;4.47;;
11608;SDS011;5860;52.018;8.536;2023-04-24T14:54:07;8.77;;;4.77;;
11608;SDS011;5860;52.018;8.536;2023-04-24T14:56:35;9.70;;;4.20;;
11608;SDS011;5860;52.018;8.536;2023-04-24T14:59:02;7.17;;;3.53;;
11608;SDS011;5860;52.018;8.536;2023-04-24T15:01:29;6.00;;;3.30;;
11608;SDS011;5860;52.018;8.536;2023-04-24T15:03:57;7.00;;;3.90;;
11608;SDS011;5860;52.018;8.536;2023-04-24T15:06:24;5.70;;;3.27;;
11608;SDS011;5860;52.018;8.536;2023-04-24T15:08:51;6.87;;;3.23;;
11608;SDS011;5860;52.018;8.536;2023-04-24T15:11:18;4.87;;;2.87;;
11608;SDS011;5860;52.018;8.536;2023-04-24T15:13:46;5.20;;;3.20;;
11608;SDS011;5860;52.018;8.536;2023-04-24T15:16:13;6.20;;;2.83;;
11608;SDS011;5860;52.018;8.536;2023-04-24T15:18:41;4.47;;;3.10;;
11608;SDS011;5860;52.018;8.536;2023-04-24T15:21:08;9.60;;;3.43;;